Time;durP1;ratioP1;P1;durP2;ratioP2;P2;SDS_P1;SDS_P2;PMS_P1;PMS_P2;Temp;Humidity;BMP_temperature;BMP_pressure;BME280_temperature;BME280_humidity;BME280_pressure;Samples;Min_cycle;Max_cycle;Signal;HPM_P1;HPM_P2
2022/05/21 03:02:36;;;;;;;40.43;38.37;;;15.90;99.90;;;;;;4951597;29;20639;-76
2022/05/21 03:05:03;;;;;;;50.87;48.20;;;16.00;99.90;;;;;;4954427;29;20185;-77
2022/05/21 03:07:30;;;;;;;55.90;52.93;;;16.00;99.90;;;;;;4956207;28;20213;-76
2022/05/21 03:12:40;;;;;;;60.27;57.23;;;16.00;99.90;;;;;;4946131;29;20194;-77
2022/05/21 03:15:07;;;;;;;50.87;48.27;;;15.90;99.90;;;;;;4968413;23;20235;-74
2022/05/21 03:17:33;;;;;;;55.20;52.33;;;15.90;99.90;;;;;;4954676;28;20197;-70
2022/05/21 03:19:58;;;;;;;53.30;50.60;;;15.80;99.90;;;;;;4955509;28;20667;-74
2022/05/21 03:22:24;;;;;;;60.40;57.40;;;15.80;99.90;;;;;;4955465;28;20629;-71
2022/05/21 03:24:50;;;;;;;50.33;47.43;;;15.70;99.90;;;;;;4955469;28;20198;-71
2022/05/21 03:27:16;;;;;;;42.10;39.87;;;15.50;99.90;;;;;;4955119;29;20701;-72
2022/05/21 03:29:41;;;;;;;21.87;20.53;;;15.50;99.90;;;;;;4954618;28;20177;-71
2022/05/21 03:32:07;;;;;;;10.57;9.93;;;15.50;99.90;;;;;;4955320;29;20190;-70
2022/05/21 03:34:36;;;;;;;13.53;12.30;;;15.40;99.90;;;;;;4954664;28;20213;-72
2022/05/21 03:37:03;;;;;;;16.20;15.33;;;15.40;99.90;;;;;;4953659;29;20223;-72
2022/05/21 03:39:29;;;;;;;10.10;9.30;;;15.40;99.90;;;;;;4954520;28;20177;-72
2022/05/21 03:41:55;;;;;;;8.73;7.93;;;15.30;99.90;;;;;;4955043;29;20699;-72
2022/05/21 03:44:21;;;;;;;10.43;9.77;;;15.30;99.90;;;;;;4954952;28;20280;-71
2022/05/21 03:46:46;;;;;;;11.23;10.40;;;15.20;99.90;;;;;;4953643;28;20182;-71
2022/05/21 03:49:12;;;;;;;11.07;10.37;;;15.10;99.90;;;;;;4955237;29;20543;-71
2022/05/21 03:51:38;;;;;;;11.70;10.70;;;15.10;99.90;;;;;;4950601;29;20196;-72
2022/05/21 03:54:04;;;;;;;13.10;12.23;;;15.10;99.90;;;;;;4956723;28;20181;-71
2022/05/21 03:56:30;;;;;;;16.20;15.23;;;15.00;99.90;;;;;;4970832;28;20185;-71
2022/05/21 03:58:55;;;;;;;14.83;13.77;;;14.90;99.90;;;;;;4973611;28;20178;-71
2022/05/21 04:01:21;;;;;;;14.73;13.37;;;14.90;99.90;;;;;;4959548;28;20197;-72
2022/05/21 04:03:48;;;;;;;18.13;17.13;;;14.80;99.90;;;;;;4954180;29;20277;-71
2022/05/21 04:06:14;;;;;;;14.67;13.80;;;14.80;99.90;;;;;;4954499;29;20193;-71
2022/05/21 04:08:40;;;;;;;14.43;13.43;;;14.70;99.90;;;;;;4960383;28;20166;-70
2022/05/21 04:11:06;;;;;;;14.40;13.30;;;14.80;99.90;;;;;;4969176;29;20185;-71
2022/05/21 04:13:31;;;;;;;13.43;12.53;;;14.80;99.90;;;;;;4954687;29;20680;-71
2022/05/21 04:15:57;;;;;;;15.90;15.00;;;14.70;99.90;;;;;;4953033;29;20224;-71
2022/05/21 04:18:23;;;;;;;15.47;14.47;;;14.70;99.90;;;;;;4953907;29;20539;-71
2022/05/21 04:20:48;;;;;;;14.80;13.80;;;14.70;99.90;;;;;;4952922;29;20190;-71
2022/05/21 04:23:14;;;;;;;16.40;15.33;;;14.70;99.90;;;;;;4949855;29;20300;-71
2022/05/21 04:25:40;;;;;;;20.57;19.33;;;14.70;99.90;;;;;;4942298;28;20260;-71
2022/05/21 04:28:06;;;;;;;16.00;14.93;;;14.70;99.90;;;;;;4953274;29;20186;-72
2022/05/21 04:30:35;;;;;;;16.63;15.63;;;14.70;99.90;;;;;;4953741;29;20181;-72
2022/05/21 04:33:01;;;;;;;17.50;16.20;;;14.70;99.90;;;;;;4954467;29;20193;-71
2022/05/21 04:38:15;;;;;;;15.73;14.63;;;14.80;99.90;;;;;;4924205;28;20736;-72
2022/05/21 04:40:42;;;;;;;17.13;16.03;;;14.70;99.90;;;;;;4973373;28;20263;-70
2022/05/21 04:43:08;;;;;;;13.63;12.50;;;14.80;99.90;;;;;;4952448;28;20213;-71
2022/05/21 04:45:34;;;;;;;15.50;14.50;;;14.80;99.90;;;;;;4953105;28;20212;-71
2022/05/21 04:48:04;;;;;;;15.90;14.90;;;14.90;99.90;;;;;;4953380;28;20268;-71
2022/05/21 04:50:30;;;;;;;16.63;15.47;;;14.90;99.90;;;;;;4953313;28;20708;-71
2022/05/21 04:52:56;;;;;;;11.63;10.93;;;15.00;99.90;;;;;;4953234;28;20272;-72
2022/05/21 04:55:22;;;;;;;9.40;8.67;;;15.10;99.90;;;;;;4953232;28;20344;-72
2022/05/21 04:57:47;;;;;;;10.70;9.90;;;15.20;99.90;;;;;;4952766;29;20340;-72
2022/05/21 05:00:14;;;;;;;45.00;42.50;;;15.20;99.90;;;;;;4952377;29;20190;-72
2022/05/21 05:02:41;;;;;;;24.97;23.43;;;15.40;99.90;;;;;;4951948;28;20213;-71
2022/05/21 05:05:08;;;;;;;10.90;9.90;;;15.50;99.90;;;;;;4951814;29;20253;-72
2022/05/21 05:07:34;;;;;;;9.03;8.43;;;15.80;99.90;;;;;;4952571;29;20543;-72
2022/05/21 05:10:00;;;;;;;22.27;20.90;;;16.00;99.90;;;;;;4953147;29;20186;-72
2022/05/21 05:12:26;;;;;;;44.53;42.20;;;16.30;99.90;;;;;;4951164;29;20232;-72
2022/05/21 05:14:53;;;;;;;59.13;55.90;;;16.50;99.90;;;;;;4951923;28;20230;-72
2022/05/21 05:17:20;;;;;;;31.57;29.83;;;16.60;99.90;;;;;;4951676;29;20182;-72
2022/05/21 05:19:46;;;;;;;26.87;25.37;;;16.70;99.90;;;;;;4952841;28;20197;-72
2022/05/21 05:22:13;;;;;;;15.97;14.97;;;16.90;99.90;;;;;;4952922;28;20562;-72
2022/05/21 05:24:39;;;;;;;13.43;12.60;;;17.30;99.90;;;;;;4952241;28;20197;-72
2022/05/21 05:27:06;;;;;;;14.03;13.10;;;17.60;99.90;;;;;;4952855;29;20269;-72
2022/05/21 05:29:32;;;;;;;9.53;8.93;;;17.70;99.90;;;;;;4952725;28;20217;-72
2022/05/21 05:31:57;;;;;;;7.70;6.60;;;18.00;99.90;;;;;;4953150;29;20209;-72
2022/05/21 05:34:23;;;;;;;13.27;12.43;;;18.30;99.90;;;;;;4952869;29;20205;-72
2022/05/21 05:36:49;;;;;;;21.80;20.63;;;18.40;99.90;;;;;;4952803;29;20192;-72
2022/05/21 05:39:16;;;;;;;33.40;31.47;;;18.30;99.90;;;;;;4951184;29;20208;-72
2022/05/21 05:41:42;;;;;;;21.00;19.83;;;18.30;99.90;;;;;;4952682;28;20272;-72
2022/05/21 05:44:08;;;;;;;28.53;27.13;;;18.20;99.90;;;;;;4951465;28;20186;-72
2022/05/21 05:46:33;;;;;;;15.23;14.40;;;18.30;99.90;;;;;;4952845;29;20185;-71
2022/05/21 05:48:59;;;;;;;17.37;16.13;;;18.10;99.90;;;;;;4962041;29;20190;-71
2022/05/21 05:51:26;;;;;;;22.73;21.47;;;18.00;99.90;;;;;;4953825;29;20193;-71
2022/05/21 05:53:52;;;;;;;6.03;5.63;;;18.20;99.90;;;;;;4953978;29;20201;-71
2022/05/21 05:56:19;;;;;;;6.17;5.77;;;18.30;99.90;;;;;;4952013;29;20654;-72
2022/05/21 06:01:30;;;;;;;7.80;7.40;;;18.30;99.90;;;;;;4952206;29;20190;-72
2022/05/21 06:03:56;;;;;;;13.93;13.13;;;18.70;99.90;;;;;;4952882;28;20219;-72
2022/05/21 06:06:22;;;;;;;15.93;15.00;;;18.90;99.90;;;;;;4952131;29;20174;-72
2022/05/21 06:08:48;;;;;;;12.63;12.00;;;19.10;99.90;;;;;;4952032;28;20178;-72
2022/05/21 06:11:16;;;;;;;17.63;16.53;;;19.70;99.90;;;;;;4951882;29;20309;-73
2022/05/21 06:13:42;;;;;;;36.93;35.00;;;20.10;99.90;;;;;;4951430;29;20604;-72
2022/05/21 06:16:08;;;;;;;35.57;33.77;;;20.00;99.90;;;;;;4966396;28;20276;-71
2022/05/21 06:18:34;;;;;;;25.50;24.05;;;20.40;99.90;;;;;;4961171;28;20268;-72
2022/05/21 06:21:02;;;;;;;18.25;17.13;;;20.60;99.90;;;;;;4952144;29;20280;-71
2022/05/21 06:23:28;;;;;;;15.60;14.73;;;20.60;99.90;;;;;;4951145;29;20214;-72
2022/05/21 06:25:54;;;;;;;19.35;18.40;;;20.50;99.90;;;;;;4954492;28;20292;-72
2022/05/21 06:28:20;;;;;;;20.45;19.40;;;20.20;99.90;;;;;;4954604;28;20182;-71
2022/05/21 06:30:46;;;;;;;20.13;19.02;;;20.40;99.90;;;;;;4954870;28;20181;-72
2022/05/21 06:33:15;;;;;;;19.90;18.85;;;20.40;99.90;;;;;;4955729;29;20208;-72
2022/05/21 06:35:41;;;;;;;27.60;26.30;;;20.30;99.90;;;;;;4954903;29;20259;-72
2022/05/21 06:38:07;;;;;;;24.13;22.83;;;20.40;99.90;;;;;;4954954;29;20221;-71
2022/05/21 06:40:33;;;;;;;28.58;27.17;;;20.60;99.90;;;;;;4955979;28;20209;-72
2022/05/21 06:43:00;;;;;;;31.08;29.50;;;20.70;99.90;;;;;;4955568;29;20248;-71
2022/05/21 06:45:30;;;;;;;14.15;13.18;;;20.90;99.90;;;;;;4955314;28;20201;-72
2022/05/21 06:48:04;;;;;;;14.60;13.88;;;21.20;99.90;;;;;;4955264;28;20202;-73
2022/05/21 06:50:30;;;;;;;11.40;10.80;;;21.30;99.90;;;;;;4955983;29;20191;-73
2022/05/21 06:52:57;;;;;;;7.47;4.95;;;21.50;99.90;;;;;;4954478;29;20276;-72
2022/05/21 06:55:23;;;;;;;5.45;4.88;;;21.80;99.90;;;;;;4961487;28;20270;-72
2022/05/21 06:57:50;;;;;;;5.18;4.85;;;22.00;99.90;;;;;;4936299;29;20238;-72
2022/05/21 07:00:18;;;;;;;5.55;5.15;;;22.10;99.90;;;;;;4936780;29;20202;-73
2022/05/21 07:02:44;;;;;;;5.38;5.18;;;22.20;99.90;;;;;;4951596;28;20296;-73
2022/05/21 07:07:55;;;;;;;6.88;6.53;;;22.50;99.90;;;;;;4955216;29;20177;-73
2022/05/21 07:10:23;;;;;;;6.38;5.95;;;22.80;99.60;;;;;;4955642;28;20209;-73
2022/05/21 07:12:50;;;;;;;5.07;4.68;;;23.00;98.30;;;;;;4955351;28;20193;-71
2022/05/21 07:15:17;;;;;;;6.47;5.97;;;22.60;98.40;;;;;;4955175;28;20217;-72
2022/05/21 07:17:45;;;;;;;6.20;5.72;;;22.20;99.60;;;;;;4955010;29;20189;-72
2022/05/21 07:20:15;;;;;;;7.60;7.15;;;21.90;99.70;;;;;;4955437;29;20213;-73
2022/05/21 07:22:43;;;;;;;6.53;6.22;;;21.90;99.90;;;;;;4954162;28;20213;-73
2022/05/21 07:25:12;;;;;;;7.15;6.85;;;21.90;99.50;;;;;;4955684;29;20198;-72
2022/05/21 07:27:38;;;;;;;7.38;6.88;;;22.00;99.90;;;;;;4957777;29;20206;-71
2022/05/21 07:30:05;;;;;;;7.57;7.18;;;22.10;99.90;;;;;;4961838;29;20182;-72
2022/05/21 07:32:31;;;;;;;7.13;6.72;;;21.90;99.90;;;;;;4954638;28;20186;-73
2022/05/21 07:35:06;;;;;;;7.25;6.65;;;21.70;99.90;;;;;;4955198;28;20212;-72
2022/05/21 07:37:32;;;;;;;6.40;5.10;;;21.70;99.90;;;;;;4954141;28;20193;-72
2022/05/21 07:39:59;;;;;;;6.10;5.65;;;21.90;99.20;;;;;;4953967;29;20204;-72
2022/05/21 07:42:25;;;;;;;5.70;5.25;;;22.30;99.00;;;;;;4954949;28;20205;-72
2022/05/21 07:44:50;;;;;;;5.05;4.75;;;22.60;98.10;;;;;;4953218;29;20197;-72
2022/05/21 07:47:16;;;;;;;5.05;4.20;;;22.70;97.90;;;;;;4954521;29;20212;-72
2022/05/21 07:49:42;;;;;;;4.18;3.90;;;22.60;96.70;;;;;;4953894;29;20209;-72
2022/05/21 07:52:08;;;;;;;4.18;3.95;;;22.40;96.60;;;;;;4964427;29;20269;-72
2022/05/21 07:54:34;;;;;;;3.67;3.38;;;22.20;97.00;;;;;;4961523;29;20569;-72
2022/05/21 07:57:01;;;;;;;5.00;4.80;;;22.20;97.20;;;;;;4954386;29;20181;-73
2022/05/21 07:59:27;;;;;;;16.00;13.45;;;22.10;94.80;;;;;;4954919;28;20232;-72
2022/05/21 08:01:53;;;;;;;11.48;10.18;;;22.20;96.40;;;;;;4954534;28;20217;-72
2022/05/21 08:04:19;;;;;;;9.77;8.98;;;22.50;94.70;;;;;;4954615;28;20265;-71
2022/05/21 08:06:45;;;;;;;9.25;8.45;;;22.60;93.40;;;;;;4953151;29;20181;-70
2022/05/21 08:09:11;;;;;;;5.88;5.22;;;22.60;93.40;;;;;;4953190;28;20559;-71
2022/05/21 08:11:37;;;;;;;4.63;4.32;;;22.60;91.80;;;;;;4953744;29;20262;-70
2022/05/21 08:14:03;;;;;;;5.85;5.45;;;22.50;92.60;;;;;;4954015;28;20601;-72
2022/05/21 08:16:30;;;;;;;5.07;4.53;;;22.60;93.10;;;;;;4954432;28;20178;-72
2022/05/21 08:18:56;;;;;;;5.20;4.90;;;22.60;92.80;;;;;;4953922;28;20178;-72
2022/05/21 08:21:22;;;;;;;4.60;4.20;;;22.60;93.40;;;;;;4954302;28;20200;-72
2022/05/21 08:29:17;;;;;;;5.22;4.65;;;23.00;92.10;;;;;;4954189;28;20272;-72
2022/05/21 08:31:43;;;;;;;3.72;3.53;;;22.80;92.90;;;;;;4955215;29;20276;-72
2022/05/21 08:34:09;;;;;;;3.63;3.45;;;22.70;92.30;;;;;;4953229;29;20783;-76
2022/05/21 08:36:36;;;;;;;3.78;3.58;;;22.70;92.80;;;;;;4952708;29;20178;-76
2022/05/21 08:39:03;;;;;;;3.65;3.45;;;22.90;93.00;;;;;;4953002;29;20264;-75
2022/05/21 08:41:32;;;;;;;3.40;3.03;;;23.20;93.00;;;;;;4953956;28;20178;-76
2022/05/21 08:44:16;;;;;;;3.95;3.25;;;23.30;91.30;;;;;;4953498;28;20632;-74
2022/05/21 08:47:00;;;;;;;9.45;7.97;;;23.00;91.50;;;;;;4951941;29;20259;-76
2022/05/21 08:49:44;;;;;;;10.57;9.57;;;22.40;91.30;;;;;;4939671;29;20206;-70
2022/05/21 08:52:20;;;;;;;6.25;5.78;;;22.60;92.30;;;;;;4944154;29;20186;-72
2022/05/21 08:54:49;;;;;;;4.85;4.60;;;22.50;91.60;;;;;;4943607;29;20237;-71
2022/05/21 08:57:21;;;;;;;4.40;4.30;;;22.60;91.80;;;;;;4933720;29;20674;-72
2022/05/21 08:59:56;;;;;;;6.28;4.80;;;22.70;91.60;;;;;;4946364;29;20191;-72
2022/05/21 09:02:31;;;;;;;4.43;4.05;;;23.10;91.30;;;;;;4953412;28;20213;-72
2022/05/21 09:04:57;;;;;;;4.60;3.05;;;23.70;92.00;;;;;;4952653;28;20314;-72
2022/05/21 09:07:28;;;;;;;2.55;2.45;;;24.10;89.10;;;;;;4941408;29;20193;-72
2022/05/21 09:10:10;;;;;;;3.08;2.92;;;23.80;89.90;;;;;;4934496;29;20560;-73
2022/05/21 09:12:58;;;;;;;3.25;3.05;;;23.70;89.00;;;;;;4933284;29;20185;-72
2022/05/21 09:18:14;;;;;;;3.03;2.92;;;23.40;87.90;;;;;;4957181;29;20181;-76
2022/05/21 09:21:08;;;;;;;3.05;2.80;;;23.40;86.90;;;;;;4970014;28;20256;-78
2022/05/21 09:23:49;;;;;;;2.67;2.58;;;23.50;89.90;;;;;;4958156;28;20209;-76
2022/05/21 09:26:16;;;;;;;3.95;3.85;;;23.70;87.90;;;;;;4937765;29;20213;-78
2022/05/21 09:28:42;;;;;;;3.38;3.20;;;23.60;86.40;;;;;;4933994;28;20192;-77
2022/05/21 09:31:09;;;;;;;2.97;2.88;;;23.30;88.90;;;;;;4949268;29;20185;-76
2022/05/21 09:33:38;;;;;;;3.42;3.20;;;23.40;88.60;;;;;;4954007;29;20673;-77
2022/05/21 09:36:05;;;;;;;9.63;8.88;;;23.20;88.70;;;;;;4952871;29;20231;-74
2022/05/21 09:38:48;;;;;;;4.05;3.85;;;23.20;89.20;;;;;;4944984;29;20182;-74
2022/05/21 09:41:23;;;;;;;3.85;3.65;;;23.20;86.90;;;;;;4934496;28;20187;-74
2022/05/21 09:47:08;;;;;;;4.35;4.15;;;23.90;85.80;;;;;;4951390;29;20666;-73
2022/05/21 09:49:34;;;;;;;4.55;4.45;;;23.90;84.20;;;;;;4952402;28;20190;-74
2022/05/21 09:52:06;;;;;;;4.60;4.35;;;23.40;88.30;;;;;;4951607;29;20182;-74
2022/05/21 09:54:40;;;;;;;4.00;3.83;;;23.40;86.40;;;;;;4952123;29;20213;-74
2022/05/21 09:57:20;;;;;;;4.30;4.05;;;23.50;88.60;;;;;;4952681;29;20344;-74
2022/05/21 10:00:04;;;;;;;5.00;4.70;;;23.70;88.20;;;;;;4951670;28;20185;-75
2022/05/21 10:02:43;;;;;;;3.78;3.58;;;23.90;88.20;;;;;;4955172;29;20555;-74
2022/05/21 10:05:32;;;;;;;3.72;3.28;;;24.70;85.40;;;;;;4954520;29;20201;-75
2022/05/21 10:11:10;;;;;;;5.20;5.00;;;24.90;87.60;;;;;;4956475;29;20193;-86
2022/05/21 10:14:04;;;;;;;2.78;2.55;;;25.20;84.70;;;;;;4957602;28;20192;-78
2022/05/21 10:16:55;;;;;;;3.42;3.22;;;24.70;82.80;;;;;;4939215;29;20226;-81
2022/05/21 10:19:40;;;;;;;3.13;2.88;;;24.50;85.40;;;;;;4944543;29;20198;-83
2022/05/21 10:22:56;;;;;;;3.35;3.25;;;25.00;84.30;;;;;;4944473;29;20214;-83
2022/05/21 10:25:25;;;;;;;3.30;3.10;;;25.30;81.60;;;;;;4956165;29;20213;-83
2022/05/21 10:28:24;;;;;;;3.40;3.30;;;25.60;81.30;;;;;;4962338;29;20174;-83
2022/05/21 10:31:24;;;;;;;3.53;3.33;;;25.30;82.20;;;;;;4944708;29;20197;-84
2022/05/21 10:34:13;;;;;;;3.50;3.28;;;25.20;84.30;;;;;;4961261;29;20265;-82
2022/05/21 10:37:10;;;;;;;4.00;3.90;;;25.30;81.50;;;;;;4957055;29;20186;-80
2022/05/21 10:39:35;;;;;;;3.78;3.58;;;24.80;79.70;;;;;;4966748;28;20193;-81
2022/05/21 10:42:15;;;;;;;3.55;3.45;;;24.30;81.90;;;;;;4968315;29;20205;-79
2022/05/21 10:45:06;;;;;;;3.67;3.38;;;24.70;83.20;;;;;;4964625;28;20204;-80
2022/05/21 10:47:57;;;;;;;2.97;2.75;;;25.10;84.50;;;;;;4977974;29;20196;-81
2022/05/21 10:50:37;;;;;;;3.17;3.08;;;25.50;84.90;;;;;;4977994;28;20186;-80
2022/05/21 10:53:12;;;;;;;3.42;3.20;;;25.40;83.90;;;;;;4974204;29;20196;-81
2022/05/21 10:56:06;;;;;;;4.97;4.72;;;26.30;79.40;;;;;;4965977;28;20293;-82
2022/05/21 10:58:35;;;;;;;6.57;5.55;;;26.60;77.50;;;;;;4963398;29;20657;-83
2022/05/21 11:01:25;;;;;;;7.60;7.22;;;26.40;79.00;;;;;;4963128;29;20665;-83
2022/05/21 11:04:24;;;;;;;9.80;9.10;;;26.30;78.20;;;;;;4942586;29;20226;-83
2022/05/21 11:07:14;;;;;;;5.07;4.50;;;27.20;76.60;;;;;;4961834;28;20193;-80
2022/05/21 11:09:45;;;;;;;3.75;3.55;;;27.00;76.60;;;;;;4962969;28;20631;-81
2022/05/21 11:12:20;;;;;;;5.95;5.65;;;27.40;75.20;;;;;;4960442;28;20549;-82
2022/05/21 11:15:05;;;;;;;6.15;5.80;;;27.20;74.30;;;;;;4965489;28;20278;-82
2022/05/21 11:17:53;;;;;;;4.80;4.60;;;27.10;74.50;;;;;;4961826;29;20202;-82
2022/05/21 11:20:37;;;;;;;3.65;3.42;;;27.50;73.00;;;;;;4971007;28;20189;-81
2022/05/21 11:23:17;;;;;;;4.05;3.53;;;27.50;73.00;;;;;;4972493;29;20217;-81
2022/05/21 11:25:56;;;;;;;3.90;3.75;;;27.70;73.20;;;;;;4966366;28;20201;-83
2022/05/21 11:28:43;;;;;;;3.50;3.30;;;27.70;72.20;;;;;;4965065;29;20228;-83
2022/05/21 11:37:43;;;;;;;2.88;2.78;;;27.40;73.00;;;;;;4963046;29;20688;-81
2022/05/21 11:39:54;;;;;;;3.78;3.58;;;27.80;71.10;;;;;;4959258;29;20190;-83
2022/05/21 11:42:36;;;;;;;5.45;5.15;;;27.40;72.40;;;;;;4960823;29;20232;-83
2022/05/21 11:45:22;;;;;;;3.03;2.90;;;27.50;70.00;;;;;;4961229;28;20208;-84
2022/05/21 11:48:09;;;;;;;4.05;3.63;;;27.30;73.10;;;;;;4960753;29;20181;-84
2022/05/21 11:50:35;;;;;;;4.63;4.35;;;28.10;69.90;;;;;;4960776;29;20189;-82
2022/05/21 11:53:32;;;;;;;5.90;5.60;;;28.10;68.30;;;;;;4962832;29;20564;-84
2022/05/21 11:56:06;;;;;;;4.40;4.20;;;27.90;67.40;;;;;;4964290;28;20224;-83
2022/05/21 11:58:59;;;;;;;9.02;5.35;;;27.70;70.80;;;;;;4961539;29;20186;-83
2022/05/21 12:01:49;;;;;;;5.45;5.18;;;27.60;69.40;;;;;;4964041;29;20200;-81
2022/05/21 12:04:40;;;;;;;5.97;5.72;;;28.10;69.50;;;;;;4975939;28;20270;-77
2022/05/21 12:07:07;;;;;;;7.15;6.75;;;27.70;67.40;;;;;;4978757;28;20184;-80
2022/05/21 12:09:34;;;;;;;8.77;8.27;;;27.70;68.50;;;;;;4963519;28;20170;-78
2022/05/21 12:12:23;;;;;;;10.48;9.93;;;27.70;66.70;;;;;;4979656;28;20178;-78
2022/05/21 12:14:55;;;;;;;6.60;6.10;;;27.90;65.60;;;;;;4959528;28;20228;-81
2022/05/21 12:17:52;;;;;;;9.60;9.00;;;27.50;68.20;;;;;;4956692;29;20182;-82
2022/05/21 12:20:45;;;;;;;7.63;7.07;;;27.80;67.80;;;;;;4947585;28;20194;-81
2022/05/21 12:23:32;;;;;;;9.98;9.48;;;28.80;66.40;;;;;;4961557;28;20213;-81
2022/05/21 12:26:00;;;;;;;9.38;8.85;;;28.40;65.90;;;;;;4961102;28;20205;-81
2022/05/21 12:28:37;;;;;;;9.93;9.15;;;27.80;67.60;;;;;;4959060;29;20193;-82
2022/05/21 12:31:09;;;;;;;11.25;10.75;;;27.80;66.50;;;;;;4960271;29;20586;-81
2022/05/21 12:33:51;;;;;;;15.68;14.80;;;28.20;64.20;;;;;;4959481;29;20236;-81
2022/05/21 12:36:41;;;;;;;6.13;5.82;;;28.80;64.40;;;;;;4959559;28;20240;-81
2022/05/21 12:39:13;;;;;;;82.47;74.47;;;29.10;60.90;;;;;;4959429;29;20213;-82
2022/05/21 12:41:44;;;;;;;6.25;5.72;;;28.80;60.80;;;;;;4962151;28;20209;-79
2022/05/21 12:44:11;;;;;;;9.10;8.50;;;28.20;61.50;;;;;;4966266;29;20187;-82
2022/05/21 12:46:41;;;;;;;13.65;12.75;;;27.70;62.90;;;;;;4960259;29;20177;-82
2022/05/21 12:49:11;;;;;;;13.63;12.93;;;27.70;64.90;;;;;;4959842;29;20189;-80
2022/05/21 12:51:48;;;;;;;5.10;4.70;;;28.50;62.20;;;;;;4960505;28;20235;-82
2022/05/21 12:54:26;;;;;;;7.07;6.47;;;28.70;61.90;;;;;;4960506;28;20453;-82
2022/05/21 12:56:53;;;;;;;5.43;5.10;;;28.90;61.60;;;;;;4964919;29;20178;-82
2022/05/21 12:59:23;;;;;;;7.82;7.40;;;29.80;59.30;;;;;;4975290;29;20171;-79
2022/05/21 13:02:15;;;;;;;9.43;8.85;;;30.10;56.90;;;;;;4976092;28;20193;-81
2022/05/21 13:04:45;;;;;;;10.25;9.75;;;30.10;57.70;;;;;;4976062;28;20198;-81
2022/05/21 13:07:41;;;;;;;11.48;10.90;;;30.50;56.50;;;;;;4962705;29;20201;-83
2022/05/21 13:10:18;;;;;;;8.48;7.97;;;30.40;56.20;;;;;;4971949;28;20166;-80
2022/05/21 13:12:48;;;;;;;9.18;8.73;;;29.60;57.40;;;;;;4966357;29;20193;-83
2022/05/21 13:15:23;;;;;;;10.07;9.18;;;29.30;55.90;;;;;;4971796;28;20693;-82
2022/05/21 13:18:19;;;;;;;7.25;6.85;;;29.00;55.80;;;;;;4971606;29;20189;-83
2022/05/21 13:21:17;;;;;;;4.00;3.70;;;29.00;57.40;;;;;;4966771;29;20196;-83
2022/05/21 13:23:48;;;;;;;5.95;5.57;;;28.10;57.10;;;;;;4954181;29;20225;-83
2022/05/21 13:26:24;;;;;;;14.43;13.63;;;26.70;59.90;;;;;;4961057;28;20291;-82
2022/05/21 13:28:50;;;;;;;10.93;10.48;;;25.90;62.90;;;;;;4960755;28;20204;-82
2022/05/21 13:31:22;;;;;;;7.90;7.18;;;25.70;65.70;;;;;;4960595;28;20184;-82
2022/05/21 13:33:53;;;;;;;7.38;6.90;;;25.80;64.50;;;;;;4959020;29;20216;-83
2022/05/21 13:36:25;;;;;;;8.88;8.32;;;26.00;63.10;;;;;;4958611;28;20220;-83
2022/05/21 13:38:56;;;;;;;13.88;13.18;;;26.40;61.90;;;;;;4958673;29;20189;-83
2022/05/21 13:41:42;;;;;;;8.80;8.32;;;26.80;61.40;;;;;;4958947;28;20197;-81
2022/05/21 13:44:15;;;;;;;14.63;13.57;;;27.70;62.00;;;;;;4958134;29;20741;-82
2022/05/21 13:46:42;;;;;;;7.07;6.57;;;28.20;58.20;;;;;;4961174;28;20635;-83
2022/05/21 13:49:35;;;;;;;9.80;9.23;;;28.10;58.80;;;;;;4962255;29;20174;-81
2022/05/21 13:52:02;;;;;;;8.45;7.85;;;27.50;57.60;;;;;;4958915;28;20686;-83
2022/05/21 13:54:31;;;;;;;8.00;7.60;;;27.80;58.70;;;;;;4958890;28;20688;-82
2022/05/21 13:57:09;;;;;;;7.43;6.35;;;28.50;57.10;;;;;;4958400;29;20186;-82
2022/05/21 13:59:45;;;;;;;5.60;5.30;;;28.00;57.60;;;;;;4959994;29;20186;-82
2022/05/21 14:02:17;;;;;;;6.13;5.72;;;27.60;58.90;;;;;;4958489;29;20208;-82
2022/05/21 14:04:44;;;;;;;10.93;10.07;;;27.90;57.80;;;;;;4959540;28;20252;-81
2022/05/21 14:07:42;;;;;;;6.15;5.85;;;28.10;59.90;;;;;;4958722;29;20185;-83
2022/05/21 14:10:09;;;;;;;4.95;4.65;;;28.60;56.30;;;;;;4963525;29;20196;-83
2022/05/21 14:12:48;;;;;;;3.75;3.47;;;29.00;56.80;;;;;;4962875;29;20280;-82
2022/05/21 14:15:29;;;;;;;3.15;2.95;;;28.60;55.80;;;;;;4961572;28;20224;-83
2022/05/21 14:17:57;;;;;;;4.65;4.28;;;28.50;55.10;;;;;;4962534;29;20266;-83
2022/05/21 14:20:37;;;;;;;4.65;4.45;;;28.20;57.00;;;;;;4962941;29;20199;-82
2022/05/21 14:23:41;;;;;;;4.05;3.85;;;28.40;57.20;;;;;;4965899;29;20216;-81
2022/05/21 14:26:27;;;;;;;3.83;3.63;;;28.80;56.10;;;;;;4920205;29;20203;-80
2022/05/21 14:28:54;;;;;;;5.60;5.28;;;28.80;55.80;;;;;;4919599;29;20285;-81
2022/05/21 14:31:40;;;;;;;25.13;22.55;;;28.70;57.00;;;;;;4935445;29;20193;-81
2022/05/21 14:34:12;;;;;;;8.95;8.25;;;29.10;56.40;;;;;;4958743;28;20688;-83
2022/05/21 14:36:42;;;;;;;7.22;6.63;;;28.70;55.10;;;;;;4961523;29;20272;-80
2022/05/21 14:39:10;;;;;;;5.05;4.65;;;28.20;55.80;;;;;;4960816;29;20196;-83
2022/05/21 14:41:42;;;;;;;22.05;21.00;;;26.70;57.50;;;;;;4974458;29;20182;-80
2022/05/21 14:44:29;;;;;;;19.35;18.30;;;25.70;62.30;;;;;;4960767;29;20186;-83
2022/05/21 14:49:40;;;;;;;9.15;8.60;;;27.90;57.10;;;;;;4972665;28;20181;-79
2022/05/21 14:54:57;;;;;;;4.28;4.03;;;29.00;54.30;;;;;;4965177;28;20253;-81
2022/05/21 14:57:22;;;;;;;3.67;3.47;;;29.20;54.00;;;;;;4979923;28;20181;-80
2022/05/21 14:59:48;;;;;;;3.95;3.75;;;28.80;54.20;;;;;;4980221;28;20189;-79
2022/05/21 15:02:16;;;;;;;4.55;4.10;;;29.00;54.50;;;;;;4978555;28;20209;-80
2022/05/21 15:04:42;;;;;;;5.43;4.93;;;29.30;54.00;;;;;;4965821;28;20209;-82
2022/05/21 15:07:13;;;;;;;5.57;5.10;;;29.30;53.50;;;;;;4963982;29;20205;-82
2022/05/21 15:09:40;;;;;;;5.07;4.78;;;28.60;52.90;;;;;;4963039;29;20193;-82
2022/05/21 15:12:07;;;;;;;4.47;4.07;;;28.60;53.40;;;;;;4962945;29;20185;-82
2022/05/21 15:16:59;;;;;;;4.60;4.20;;;28.80;54.20;;;;;;4996185;23;20713;-78
2022/05/21 15:19:25;;;;;;;4.43;4.00;;;29.00;53.20;;;;;;4976013;28;20185;-77
2022/05/21 15:21:55;;;;;;;5.22;4.93;;;27.60;54.10;;;;;;4977834;28;20189;-78
2022/05/21 15:24:21;;;;;;;6.00;5.60;;;26.70;56.20;;;;;;4975071;28;20181;-78
2022/05/21 15:26:47;;;;;;;5.47;5.28;;;27.10;56.30;;;;;;4975273;28;20487;-78
2022/05/21 15:29:13;;;;;;;6.93;6.63;;;27.20;56.50;;;;;;4975809;28;20181;-78
2022/05/21 15:31:39;;;;;;;5.95;5.43;;;27.30;56.10;;;;;;4958504;28;20185;-79
2022/05/21 15:34:04;;;;;;;5.45;5.05;;;27.20;55.40;;;;;;4974672;28;20280;-78
2022/05/21 15:36:30;;;;;;;8.80;8.32;;;26.80;56.30;;;;;;4974747;28;20204;-79
2022/05/21 15:38:57;;;;;;;15.73;14.98;;;26.20;57.80;;;;;;4977961;28;20209;-79
2022/05/21 15:41:25;;;;;;;17.15;16.27;;;25.60;58.80;;;;;;4981855;28;20185;-77
2022/05/21 15:43:54;;;;;;;11.13;10.63;;;25.30;60.60;;;;;;4979614;28;20177;-78
2022/05/21 15:46:25;;;;;;;6.93;6.53;;;25.00;61.00;;;;;;4985458;28;20209;-78
2022/05/21 15:48:52;;;;;;;5.63;4.90;;;24.70;60.50;;;;;;4980007;28;20671;-77
2022/05/21 15:51:24;;;;;;;3.20;3.00;;;24.20;62.00;;;;;;4973938;28;20239;-77
2022/05/21 15:53:50;;;;;;;5.13;4.63;;;23.70;63.50;;;;;;4973373;28;20615;-77
2022/05/21 15:56:18;;;;;;;8.13;7.20;;;23.40;63.60;;;;;;4973533;28;20267;-77
2022/05/21 15:58:46;;;;;;;7.80;7.05;;;23.40;65.40;;;;;;4977466;28;20185;-76
2022/05/21 16:01:18;;;;;;;7.38;6.75;;;24.10;65.20;;;;;;4981747;28;20188;-78
2022/05/21 16:03:45;;;;;;;7.57;6.88;;;24.90;62.20;;;;;;4977736;28;20191;-79
2022/05/21 16:06:11;;;;;;;7.18;4.22;;;25.40;61.20;;;;;;4975057;28;20207;-79
2022/05/21 16:08:37;;;;;;;3.90;3.53;;;25.40;60.40;;;;;;4975089;28;20554;-79
2022/05/21 16:11:06;;;;;;;4.25;3.92;;;25.30;61.20;;;;;;4974216;28;20165;-78
2022/05/21 16:13:34;;;;;;;3.60;3.40;;;25.50;61.20;;;;;;4974937;28;20713;-79
2022/05/21 16:16:01;;;;;;;4.85;4.45;;;26.10;60.10;;;;;;4974847;28;20718;-78
2022/05/21 16:18:27;;;;;;;5.13;4.82;;;26.00;60.20;;;;;;4975008;28;20215;-79
2022/05/21 16:20:53;;;;;;;3.92;3.72;;;25.40;60.70;;;;;;4975120;28;20657;-79
2022/05/21 16:23:20;;;;;;;6.35;4.20;;;24.80;61.90;;;;;;4974302;28;20769;-78
2022/05/21 16:25:48;;;;;;;4.38;3.35;;;24.50;63.90;;;;;;4974661;28;20228;-78
2022/05/21 16:28:15;;;;;;;4.03;3.67;;;24.80;64.40;;;;;;4980068;28;20189;-78
2022/05/21 16:30:41;;;;;;;3.70;3.50;;;25.40;62.00;;;;;;4974232;28;20181;-77
2022/05/21 16:33:07;;;;;;;4.10;3.80;;;25.20;60.10;;;;;;4975048;28;20631;-77
2022/05/21 16:35:33;;;;;;;5.22;3.80;;;24.90;61.80;;;;;;4978536;28;20201;-77
2022/05/21 16:37:58;;;;;;;5.18;4.78;;;24.60;63.20;;;;;;4981572;28;20181;-77
2022/05/21 16:40:24;;;;;;;2.97;2.78;;;24.00;64.00;;;;;;4975738;28;20181;-78
2022/05/21 16:42:50;;;;;;;4.07;3.35;;;23.90;67.20;;;;;;4974707;28;20752;-78
2022/05/21 16:45:19;;;;;;;4.57;4.28;;;23.90;65.70;;;;;;4973866;28;20206;-78